createdAt,value
2019-03-28T00:01:53.310Z,19.67
2019-03-28T00:04:22.858Z,21.27
2019-03-28T00:06:54.195Z,17.43
2019-03-28T00:09:24.601Z,22.87
2019-03-28T00:11:54.536Z,20.10
2019-03-28T00:14:26.363Z,19.57
2019-03-28T00:16:56.509Z,20.20
2019-03-28T00:19:26.355Z,18.23
2019-03-28T00:21:56.230Z,17.50
2019-03-28T00:24:29.561Z,19.43
2019-03-28T00:26:59.559Z,19.82
2019-03-28T00:29:29.850Z,17.37
2019-03-28T00:32:00.462Z,18.03
2019-03-28T00:34:31.177Z,19.20
2019-03-28T00:37:02.219Z,19.53
2019-03-28T00:39:32.164Z,20.23
2019-03-28T00:42:02.002Z,20.60
2019-03-28T00:44:31.629Z,20.83
2019-03-28T00:47:01.176Z,19.27
2019-03-28T00:49:30.991Z,20.40
2019-03-28T00:52:01.188Z,18.67
2019-03-28T00:54:30.922Z,21.63
2019-03-28T00:57:00.980Z,19.37
2019-03-28T01:01:59.292Z,18.00
2019-03-28T01:06:57.482Z,19.30
2019-03-28T01:09:27.378Z,18.80
2019-03-28T01:11:57.275Z,20.83
2019-03-28T01:14:27.487Z,16.73
2019-03-28T01:17:00.070Z,20.50
2019-03-28T01:19:30.170Z,19.17
2019-03-28T01:22:00.089Z,19.07
2019-03-28T01:24:29.613Z,19.07
2019-03-28T01:26:59.758Z,22.30
2019-03-28T01:29:29.422Z,20.40
2019-03-28T01:32:00.174Z,19.57
2019-03-28T01:34:30.973Z,22.63
2019-03-28T01:37:00.854Z,22.40
2019-03-28T01:39:30.465Z,18.23
2019-03-28T01:42:00.564Z,22.37
2019-03-28T01:44:30.474Z,20.13
2019-03-28T01:47:00.274Z,21.73
2019-03-28T01:49:30.146Z,19.30
2019-03-28T01:52:04.081Z,19.83
2019-03-28T01:54:34.668Z,19.17
2019-03-28T01:57:10.791Z,19.40
2019-03-28T01:59:36.823Z,21.53
2019-03-28T02:02:06.921Z,22.63
2019-03-28T02:04:37.114Z,18.03
2019-03-28T02:07:06.664Z,16.17
2019-03-28T02:09:36.473Z,18.27
2019-03-28T02:12:06.061Z,19.60
2019-03-28T02:14:35.902Z,20.03
2019-03-28T02:17:05.908Z,19.70
2019-03-28T02:19:35.558Z,19.17
2019-03-28T02:22:05.819Z,20.67
2019-03-28T02:24:35.670Z,19.83
2019-03-28T02:27:05.942Z,18.30
2019-03-28T02:29:35.567Z,22.33
2019-03-28T02:32:05.455Z,23.80
2019-03-28T02:34:36.013Z,19.23
2019-03-28T02:37:06.231Z,20.90
2019-03-28T02:39:36.119Z,20.03
2019-03-28T02:42:05.875Z,21.63
2019-03-28T02:44:35.437Z,21.53
2019-03-28T02:47:05.063Z,20.33
2019-03-28T02:49:35.257Z,18.87
2019-03-28T02:52:04.823Z,21.23
2019-03-28T02:54:34.458Z,20.77
2019-03-28T02:57:04.676Z,20.43
2019-03-28T02:59:34.246Z,20.53
2019-03-28T03:02:04.776Z,18.70
2019-03-28T03:04:34.307Z,18.57
2019-03-28T03:07:03.911Z,22.80
2019-03-28T03:09:33.451Z,18.57
2019-03-28T03:12:03.657Z,21.13
2019-03-28T03:14:33.566Z,21.03
2019-03-28T03:17:03.122Z,18.67
2019-03-28T03:19:36.175Z,19.77
2019-03-28T03:22:06.480Z,18.90
2019-03-28T03:24:36.760Z,19.37
2019-03-28T03:27:06.484Z,19.53
2019-03-28T03:29:36.403Z,17.93
2019-03-28T03:32:06.386Z,19.43
2019-03-28T03:34:37.439Z,20.00
2019-03-28T03:37:07.360Z,20.30
2019-03-28T03:39:38.003Z,17.63
2019-03-28T03:42:07.940Z,23.13
2019-03-28T03:44:37.820Z,20.20
2019-03-28T03:47:07.380Z,20.47
2019-03-28T03:49:37.869Z,19.80
2019-03-28T03:52:08.124Z,20.70
2019-03-28T03:54:38.552Z,19.23
2019-03-28T03:57:08.621Z,19.55
2019-03-28T03:59:38.571Z,21.10
2019-03-28T04:02:09.064Z,19.57
2019-03-28T04:04:39.537Z,21.67
2019-03-28T04:07:09.369Z,20.27
2019-03-28T04:09:38.991Z,19.27
2019-03-28T04:12:08.501Z,22.10
2019-03-28T04:14:38.893Z,19.67
2019-03-28T04:17:08.566Z,22.80
2019-03-28T04:19:39.032Z,20.47
2019-03-28T04:22:09.954Z,20.47
2019-03-28T04:24:39.850Z,21.33
2019-03-28T04:27:09.479Z,21.63
2019-03-28T04:29:39.371Z,21.10
2019-03-28T04:32:09.540Z,25.07
2019-03-28T04:34:39.910Z,22.67
2019-03-28T04:37:09.770Z,21.83
2019-03-28T04:39:39.354Z,21.00
2019-03-28T04:42:09.999Z,27.00
2019-03-28T04:44:41.300Z,21.80
2019-03-28T04:47:11.000Z,23.47
2019-03-28T04:49:41.013Z,23.27
2019-03-28T04:52:11.057Z,19.53
2019-03-28T04:54:40.617Z,22.97
2019-03-28T04:57:10.742Z,18.73
2019-03-28T04:59:40.419Z,20.87
2019-03-28T05:02:12.216Z,23.60
2019-03-28T05:04:42.409Z,21.70
2019-03-28T05:07:12.273Z,22.30
2019-03-28T05:09:41.824Z,19.53
2019-03-28T05:12:14.070Z,24.10
2019-03-28T05:14:44.222Z,19.60
2019-03-28T05:17:15.000Z,19.03
2019-03-28T05:19:45.036Z,22.37
2019-03-28T05:22:14.907Z,23.53
2019-03-28T05:24:45.882Z,22.70
2019-03-28T05:27:16.708Z,25.00
2019-03-28T05:29:48.480Z,22.37
2019-03-28T05:32:18.483Z,20.40
2019-03-28T05:34:48.562Z,24.18
2019-03-28T05:37:20.504Z,23.10
2019-03-28T05:39:50.478Z,25.23
2019-03-28T05:42:21.900Z,26.10
2019-03-28T05:44:53.009Z,21.27
2019-03-28T05:47:25.240Z,24.80
2019-03-28T05:49:57.006Z,22.83
2019-03-28T05:52:27.150Z,22.20
2019-03-28T05:54:57.462Z,19.27
2019-03-28T05:57:28.111Z,22.13
2019-03-28T05:59:58.107Z,22.77
2019-03-28T06:02:27.981Z,18.80
2019-03-28T06:04:58.203Z,21.63
2019-03-28T06:07:28.773Z,21.87
2019-03-28T06:09:58.579Z,18.33
2019-03-28T06:12:28.606Z,18.83
2019-03-28T06:17:34.108Z,21.00
2019-03-28T06:20:05.563Z,21.37
2019-03-28T06:22:42.293Z,20.40
2019-03-28T06:25:13.742Z,22.17
2019-03-28T06:27:48.791Z,20.63
2019-03-28T06:30:20.283Z,22.93
2019-03-28T06:32:51.527Z,22.15
2019-03-28T06:35:22.046Z,21.77
2019-03-28T06:37:52.594Z,21.77
2019-03-28T06:40:24.968Z,22.70
2019-03-28T06:42:56.088Z,23.92
2019-03-28T06:45:28.618Z,20.80
2019-03-28T06:48:00.605Z,21.97
2019-03-28T06:50:34.621Z,19.20
2019-03-28T06:53:04.824Z,22.10
2019-03-28T06:55:36.902Z,21.83
2019-03-28T06:58:07.524Z,24.07
2019-03-28T07:00:43.163Z,25.05
2019-03-28T07:03:14.321Z,24.90
2019-03-28T07:05:48.391Z,26.25
2019-03-28T07:08:18.566Z,24.10
2019-03-28T07:16:48.046Z,25.57
2019-03-28T07:19:23.658Z,27.58
2019-03-28T07:22:15.456Z,28.45
2019-03-28T07:24:45.728Z,25.48
2019-03-28T07:35:11.250Z,22.60
2019-03-28T07:37:43.256Z,23.20
2019-03-28T07:40:18.866Z,23.20
2019-03-28T07:42:52.426Z,22.73
2019-03-28T07:52:55.523Z,27.77
2019-03-28T07:55:25.720Z,19.33
2019-03-28T07:57:56.914Z,19.50
2019-03-28T08:00:26.668Z,21.03
2019-03-28T08:02:58.442Z,22.52
2019-03-28T08:05:32.558Z,21.33
2019-03-28T08:08:03.178Z,18.47
2019-03-28T08:10:34.459Z,19.40
2019-03-28T08:13:12.912Z,19.98
2019-03-28T08:15:43.371Z,19.33
2019-03-28T08:18:14.199Z,20.65
2019-03-28T08:20:44.220Z,19.95
2019-03-28T08:23:14.156Z,19.40
2019-03-28T08:25:44.093Z,17.82
2019-03-28T08:28:14.109Z,17.65
2019-03-28T08:30:45.338Z,17.37
2019-03-28T08:33:16.138Z,20.43
2019-03-28T08:35:48.006Z,19.00
2019-03-28T08:38:20.863Z,18.70
2019-03-28T08:40:52.057Z,15.90
2019-03-28T08:43:22.584Z,15.32
2019-03-28T08:45:53.346Z,13.38
2019-03-28T08:48:23.081Z,15.18
2019-03-28T08:50:53.122Z,14.68
2019-03-28T08:53:23.550Z,12.53
2019-03-28T08:55:53.240Z,15.17
2019-03-28T08:58:23.751Z,13.32
2019-03-28T09:00:56.755Z,12.47
2019-03-28T09:03:26.899Z,14.00
2019-03-28T09:05:56.632Z,12.03
2019-03-28T09:08:26.463Z,14.45
2019-03-28T09:10:57.975Z,13.83
2019-03-28T09:13:27.891Z,15.32
2019-03-28T09:15:58.595Z,12.93
2019-03-28T09:18:31.743Z,11.45
2019-03-28T09:21:01.652Z,11.38
2019-03-28T09:23:31.773Z,12.45
2019-03-28T09:26:04.353Z,13.53
2019-03-28T09:28:33.965Z,12.80
2019-03-28T09:31:18.977Z,12.23
2019-03-28T09:33:40.655Z,14.13
2019-03-28T09:36:11.852Z,13.60
2019-03-28T09:38:41.543Z,12.00
2019-03-28T09:41:12.513Z,10.20
2019-03-28T09:43:54.484Z,10.08
2019-03-28T09:46:16.374Z,12.07
2019-03-28T09:48:46.859Z,11.08
2019-03-28T09:51:16.671Z,10.50
2019-03-28T09:53:47.741Z,10.90
2019-03-28T09:56:20.062Z,10.28
2019-03-28T09:58:51.276Z,10.53
2019-03-28T10:01:22.196Z,11.20
2019-03-28T10:03:53.690Z,10.80
2019-03-28T10:06:25.353Z,10.70
2019-03-28T10:08:55.802Z,10.93
2019-03-28T10:11:36.604Z,11.25
2019-03-28T10:14:06.800Z,11.10
2019-03-28T10:16:40.174Z,11.48
2019-03-28T10:19:08.655Z,10.98
2019-03-28T10:21:38.579Z,11.03
2019-03-28T10:24:08.292Z,10.95
2019-03-28T10:26:39.427Z,11.90
2019-03-28T10:29:10.626Z,12.47
2019-03-28T10:31:41.348Z,12.85
2019-03-28T10:34:11.717Z,12.43
2019-03-28T10:36:41.385Z,11.15
2019-03-28T10:39:11.659Z,10.70
2019-03-28T10:41:42.153Z,10.30
2019-03-28T10:44:15.536Z,10.43
2019-03-28T10:46:45.822Z,11.57
2019-03-28T10:49:15.790Z,13.45
2019-03-28T10:51:46.045Z,12.27
2019-03-28T10:54:20.331Z,12.37
2019-03-28T10:56:52.102Z,9.67
2019-03-28T10:59:23.543Z,13.37
2019-03-28T11:01:51.973Z,12.10
2019-03-28T11:04:22.677Z,12.50
2019-03-28T11:06:53.577Z,8.80
2019-03-28T11:09:24.074Z,7.90
2019-03-28T11:11:56.906Z,8.70
2019-03-28T11:14:30.150Z,10.27
2019-03-28T11:17:02.136Z,13.50
2019-03-28T11:19:33.043Z,9.43
2019-03-28T11:22:03.093Z,10.23
2019-03-28T11:24:32.882Z,9.53
2019-03-28T11:27:04.884Z,11.97
2019-03-28T11:29:34.772Z,11.53
2019-03-28T11:32:05.623Z,13.50
2019-03-28T11:34:36.470Z,12.27
2019-03-28T11:37:09.630Z,10.17
2019-03-28T11:39:38.848Z,12.13
2019-03-28T11:42:09.489Z,10.90
2019-03-28T11:47:08.654Z,10.73
2019-03-28T11:49:39.325Z,13.87
2019-03-28T11:52:09.509Z,11.17
2019-03-28T11:54:41.157Z,11.67
2019-03-28T11:57:11.593Z,12.47
2019-03-28T11:59:41.277Z,11.97
2019-03-28T12:04:42.244Z,12.27
2019-03-28T12:07:12.439Z,15.83
2019-03-28T12:09:44.759Z,13.43
2019-03-28T12:12:14.496Z,14.43
2019-03-28T12:14:46.938Z,12.37
2019-03-28T12:17:16.879Z,12.23
2019-03-28T12:19:47.028Z,13.30
2019-03-28T12:22:17.670Z,12.13
2019-03-28T12:24:47.805Z,12.13
2019-03-28T12:27:20.989Z,11.40
2019-03-28T12:29:52.799Z,10.10
2019-03-28T12:32:23.331Z,10.97
2019-03-28T12:34:53.346Z,10.77
2019-03-28T12:37:23.221Z,11.27
2019-03-28T12:42:23.626Z,12.57
2019-03-28T12:44:57.291Z,11.23
2019-03-28T12:47:41.527Z,10.93
2019-03-28T12:50:01.831Z,12.90
2019-03-28T12:52:32.278Z,10.93
2019-03-28T12:55:02.568Z,11.37
2019-03-28T12:57:33.885Z,10.90
2019-03-28T13:00:05.041Z,11.37
2019-03-28T13:02:34.874Z,10.53
2019-03-28T13:05:05.401Z,12.43
2019-03-28T13:07:36.409Z,12.07
2019-03-28T13:10:07.796Z,12.30
2019-03-28T13:12:38.917Z,10.90
2019-03-28T13:15:09.792Z,11.67
2019-03-28T13:17:41.973Z,13.70
2019-03-28T13:20:22.338Z,12.88
2019-03-28T13:22:52.862Z,12.93
2019-03-28T13:25:23.352Z,11.37
2019-03-28T13:27:55.106Z,10.23
2019-03-28T13:30:24.987Z,8.53
2019-03-28T13:32:54.776Z,9.80
2019-03-28T13:35:24.915Z,10.80
2019-03-28T13:37:55.122Z,10.33
2019-03-28T13:40:26.270Z,11.33
2019-03-28T13:42:56.613Z,9.27
2019-03-28T13:45:26.281Z,12.37
2019-03-28T13:47:59.426Z,9.93
2019-03-28T13:50:29.554Z,9.40
2019-03-28T13:52:59.757Z,8.07
2019-03-28T13:55:33.625Z,8.60
2019-03-28T13:58:03.975Z,10.13
2019-03-28T14:00:39.535Z,10.03
2019-03-28T14:03:10.369Z,8.53
2019-03-28T14:05:41.246Z,8.60
2019-03-28T14:08:14.550Z,9.53
2019-03-28T14:10:45.204Z,9.73
2019-03-28T14:13:15.318Z,7.20
2019-03-28T14:15:45.370Z,6.80
2019-03-28T14:18:15.530Z,6.83
2019-03-28T14:20:45.365Z,9.00
2019-03-28T14:28:12.890Z,7.10
2019-03-28T14:30:44.268Z,8.30
2019-03-28T14:33:16.002Z,6.60
2019-03-28T14:35:46.279Z,7.03
2019-03-28T14:40:44.923Z,5.53
2019-03-28T14:43:15.405Z,5.07
2019-03-28T14:45:46.132Z,6.20
2019-03-28T14:48:16.115Z,5.93
2019-03-28T14:50:47.209Z,7.77
2019-03-28T14:58:14.584Z,8.00
2019-03-28T15:00:50.177Z,5.17
2019-03-28T15:03:26.451Z,6.00
2019-03-28T15:05:52.136Z,4.40
2019-03-28T15:08:23.549Z,4.77
2019-03-28T15:10:54.409Z,6.77
2019-03-28T15:13:24.237Z,6.03
2019-03-28T15:15:54.371Z,4.30
2019-03-28T15:18:24.468Z,4.47
2019-03-28T15:20:55.312Z,6.30
2019-03-28T15:23:25.452Z,6.80
2019-03-28T15:26:02.806Z,4.90
2019-03-28T15:28:36.319Z,6.50
2019-03-28T15:31:06.431Z,5.97
2019-03-28T15:33:39.665Z,5.53
2019-03-28T15:36:09.500Z,5.40
2019-03-28T15:38:39.863Z,8.37
2019-03-28T15:41:10.250Z,4.80
2019-03-28T15:43:42.150Z,5.00
2019-03-28T15:46:14.763Z,4.67
2019-03-28T15:48:47.816Z,4.90
2019-03-28T15:51:19.200Z,6.80
2019-03-28T15:53:49.586Z,5.40
2019-03-28T15:57:02.109Z,6.93
2019-03-28T15:59:59.573Z,5.40
2019-03-28T16:02:29.476Z,6.60
2019-03-28T16:05:00.845Z,6.63
2019-03-28T16:07:30.545Z,5.80
2019-03-28T16:10:00.756Z,6.73
2019-03-28T16:12:30.881Z,6.23
2019-03-28T16:15:00.834Z,8.30
2019-03-28T16:17:32.922Z,7.23
2019-03-28T16:20:02.658Z,6.97
2019-03-28T16:22:33.256Z,7.77
2019-03-28T16:25:03.331Z,7.10
2019-03-28T16:27:35.338Z,7.03
2019-03-28T16:30:05.634Z,6.20
2019-03-28T16:32:36.017Z,7.60
2019-03-28T16:35:07.905Z,6.30
2019-03-28T16:37:38.377Z,7.50
2019-03-28T16:40:10.375Z,7.63
2019-03-28T16:42:40.132Z,6.97
2019-03-28T16:45:13.569Z,6.37
2019-03-28T16:47:43.797Z,7.77
2019-03-28T16:50:14.390Z,6.87
2019-03-28T16:52:48.108Z,8.93
2019-03-28T16:55:26.312Z,9.93
2019-03-28T16:57:50.698Z,8.67
2019-03-28T17:00:22.773Z,7.73
2019-03-28T17:02:53.135Z,7.83
2019-03-28T17:05:26.549Z,8.73
2019-03-28T17:07:59.383Z,9.27
2019-03-28T17:15:47.502Z,8.13
2019-03-28T17:18:18.853Z,8.57
2019-03-28T17:20:49.676Z,7.97
2019-03-28T17:23:20.934Z,9.47
2019-03-28T17:25:50.881Z,7.27
2019-03-28T17:28:22.903Z,7.57
2019-03-28T17:30:53.244Z,10.37
2019-03-28T17:33:23.629Z,10.57
2019-03-28T17:35:53.796Z,11.07
2019-03-28T17:38:24.457Z,9.20
2019-03-28T17:40:54.557Z,10.73
2019-03-28T17:43:26.168Z,7.20
2019-03-28T17:45:55.945Z,7.37
2019-03-28T17:48:28.382Z,7.93
2019-03-28T17:50:58.256Z,8.33
2019-03-28T17:53:28.566Z,7.40
2019-03-28T17:56:01.386Z,8.67
2019-03-28T17:58:31.738Z,8.43
2019-03-28T18:01:01.483Z,9.23
2019-03-28T18:03:31.824Z,10.17
2019-03-28T18:06:01.964Z,5.93
2019-03-28T18:08:32.449Z,6.57
2019-03-28T18:11:02.330Z,5.20
2019-03-28T18:13:32.246Z,6.30
2019-03-28T18:16:03.655Z,7.03
2019-03-28T18:18:35.747Z,5.03
2019-03-28T18:21:06.134Z,5.77
2019-03-28T18:23:36.182Z,5.00
2019-03-28T18:26:06.318Z,3.83
2019-03-28T18:28:37.294Z,4.17
2019-03-28T18:31:07.388Z,4.70
2019-03-28T18:33:38.070Z,4.90
2019-03-28T18:36:08.085Z,4.60
2019-03-28T18:38:38.277Z,5.57
2019-03-28T18:41:08.411Z,4.47
2019-03-28T18:43:38.666Z,3.33
2019-03-28T18:46:14.366Z,3.87
2019-03-28T18:48:44.782Z,6.20
2019-03-28T18:51:15.241Z,3.47
2019-03-28T18:53:46.965Z,4.00
2019-03-28T18:56:16.742Z,4.37
2019-03-28T18:58:46.761Z,3.77
2019-03-28T19:01:16.949Z,6.23
2019-03-28T19:03:46.941Z,4.83
2019-03-28T19:06:18.149Z,2.87
2019-03-28T19:08:47.880Z,5.97
2019-03-28T19:11:17.714Z,3.20
2019-03-28T19:13:48.183Z,3.57
2019-03-28T19:16:21.601Z,5.40
2019-03-28T19:18:50.258Z,3.37
2019-03-28T19:21:19.950Z,4.37
2019-03-28T19:23:50.574Z,3.60
2019-03-28T19:26:21.081Z,4.37
2019-03-28T19:28:50.887Z,3.50
2019-03-28T19:31:21.066Z,4.40
2019-03-28T19:33:59.793Z,4.23
2019-03-28T19:36:30.739Z,3.73
2019-03-28T19:39:00.576Z,5.27
2019-03-28T19:41:31.301Z,5.00
2019-03-28T19:44:02.184Z,5.23
2019-03-28T19:46:32.482Z,4.67
2019-03-28T19:49:02.297Z,4.77
2019-03-28T19:51:34.063Z,4.80
2019-03-28T19:54:04.837Z,4.30
2019-03-28T19:56:37.443Z,4.27
2019-03-28T19:59:07.752Z,4.57
2019-03-28T20:02:17.831Z,4.40
2019-03-28T20:04:48.021Z,5.63
2019-03-28T20:07:21.984Z,6.07
2019-03-28T20:09:52.205Z,4.67
2019-03-28T20:12:23.725Z,5.53
2019-03-28T20:14:54.250Z,5.23
2019-03-28T20:17:24.486Z,5.27
2019-03-28T20:19:55.224Z,6.40
2019-03-28T20:22:25.283Z,6.17
2019-03-28T20:24:58.139Z,5.00
2019-03-28T20:27:27.082Z,5.70
2019-03-28T20:29:57.519Z,5.77
2019-03-28T20:32:28.385Z,5.57
2019-03-28T20:35:05.891Z,10.43
2019-03-28T20:37:37.994Z,5.77
2019-03-28T20:40:09.705Z,5.23
2019-03-28T20:42:41.029Z,6.97
2019-03-28T20:45:12.168Z,6.30
2019-03-28T20:47:42.333Z,6.10
2019-03-28T20:50:13.208Z,5.70
2019-03-28T20:52:44.787Z,6.07
2019-03-28T20:56:38.719Z,6.50
2019-03-28T20:59:08.481Z,6.47
2019-03-28T21:01:38.196Z,6.93
2019-03-28T21:04:09.250Z,8.70
2019-03-28T21:06:40.398Z,6.73
2019-03-28T21:09:10.595Z,7.33
2019-03-28T21:11:40.429Z,6.57
2019-03-28T21:14:19.926Z,6.87
2019-03-28T21:16:52.385Z,6.43
2019-03-28T21:19:22.664Z,7.00
2019-03-28T21:21:55.271Z,7.43
2019-03-28T21:24:25.028Z,7.20
2019-03-28T21:26:57.498Z,7.07
2019-03-28T21:29:27.567Z,6.57
2019-03-28T21:31:58.816Z,7.20
2019-03-28T21:34:31.084Z,6.73
2019-03-28T21:37:01.606Z,7.30
2019-03-28T21:39:39.807Z,8.00
2019-03-28T21:42:08.116Z,7.40
2019-03-28T21:44:38.799Z,7.33
2019-03-28T21:47:09.299Z,7.60
2019-03-28T21:49:41.507Z,7.47
2019-03-28T21:52:14.079Z,7.73
2019-03-28T21:55:11.304Z,7.23
2019-03-28T21:57:46.257Z,7.53
2019-03-28T22:00:20.763Z,6.87
2019-03-28T22:02:51.424Z,7.30
2019-03-28T22:05:21.317Z,7.23
2019-03-28T22:07:55.084Z,7.43
2019-03-28T22:10:26.013Z,7.30
2019-03-28T22:12:56.091Z,6.60
2019-03-28T22:15:26.839Z,7.80
2019-03-28T22:17:57.759Z,7.33
2019-03-28T22:20:29.828Z,7.73
2019-03-28T22:23:00.651Z,8.27
2019-03-28T22:25:33.550Z,6.73
2019-03-28T22:28:03.673Z,7.17
2019-03-28T22:30:35.443Z,6.90
2019-03-28T22:33:06.554Z,8.20
2019-03-28T22:35:37.247Z,7.10
2019-03-28T22:38:08.542Z,7.07
2019-03-28T22:40:39.716Z,7.47
2019-03-28T22:43:09.554Z,7.00
2019-03-28T22:45:41.350Z,6.90
2019-03-28T22:48:12.383Z,7.27
2019-03-28T22:50:46.506Z,7.33
2019-03-28T22:53:17.171Z,7.23
2019-03-28T22:55:48.649Z,7.20
2019-03-28T22:58:18.907Z,8.17
2019-03-28T23:00:55.433Z,7.27
2019-03-28T23:03:27.961Z,7.00
2019-03-28T23:06:14.081Z,7.77
2019-03-28T23:08:46.784Z,7.80
2019-03-28T23:11:16.946Z,7.90
2019-03-28T23:13:48.084Z,7.50
2019-03-28T23:16:18.086Z,7.43
2019-03-28T23:18:48.364Z,7.50
2019-03-28T23:21:22.400Z,8.03
2019-03-28T23:23:55.137Z,8.47
2019-03-28T23:26:34.181Z,9.17
2019-03-28T23:29:05.935Z,8.27
2019-03-28T23:31:37.063Z,8.30
2019-03-28T23:34:07.748Z,7.10
2019-03-28T23:36:53.553Z,8.17
2019-03-28T23:39:25.354Z,7.90
2019-03-28T23:42:08.161Z,8.33
2019-03-28T23:44:39.069Z,9.43
2019-03-28T23:47:09.153Z,8.83
2019-03-28T23:49:40.852Z,8.13
2019-03-28T23:52:11.303Z,8.03
2019-03-28T23:54:44.539Z,9.63
2019-03-28T23:57:14.514Z,10.32
2019-03-28T23:59:46.016Z,9.30
